createdAt,value
2023-03-31T00:02:13.884Z,2.83
2023-03-31T00:04:52.479Z,3.05
2023-03-31T00:07:22.175Z,2.97
2023-03-31T00:09:49.057Z,3.53
2023-03-31T00:12:17.114Z,3.00
2023-03-31T00:14:44.352Z,2.92
2023-03-31T00:17:11.638Z,3.75
2023-03-31T00:19:40.255Z,3.55
2023-03-31T00:22:06.996Z,2.60
2023-03-31T00:24:34.176Z,2.90
2023-03-31T00:27:02.054Z,3.30
2023-03-31T00:29:29.154Z,2.33
2023-03-31T00:31:56.140Z,2.28
2023-03-31T00:34:22.844Z,2.20
2023-03-31T00:36:49.526Z,1.92
2023-03-31T00:39:18.645Z,1.90
2023-03-31T00:41:45.550Z,1.95
2023-03-31T00:44:19.191Z,1.83
2023-03-31T00:46:52.940Z,1.95
2023-03-31T00:49:24.982Z,2.20
2023-03-31T00:51:54.415Z,2.40
2023-03-31T00:54:25.473Z,1.90
2023-03-31T00:56:55.602Z,2.05
2023-03-31T00:59:27.985Z,2.10
2023-03-31T01:01:59.359Z,2.03
2023-03-31T01:04:26.476Z,2.00
2023-03-31T01:07:34.513Z,2.03
2023-03-31T01:10:04.278Z,2.10
2023-03-31T01:12:34.023Z,1.85
2023-03-31T01:15:03.420Z,1.98
2023-03-31T01:17:30.940Z,2.13
2023-03-31T01:19:57.496Z,2.03
2023-03-31T01:22:46.291Z,1.90
2023-03-31T01:25:21.861Z,2.30
2023-03-31T01:27:54.420Z,2.13
2023-03-31T01:30:23.737Z,2.40
2023-03-31T01:32:52.929Z,2.15
2023-03-31T01:35:50.097Z,2.58
2023-03-31T01:38:35.014Z,2.08
2023-03-31T01:41:29.371Z,2.33
2023-03-31T01:44:20.802Z,2.38
2023-03-31T01:46:53.308Z,2.63
2023-03-31T01:50:08.418Z,2.20
2023-03-31T01:53:09.722Z,2.33
2023-03-31T01:55:42.525Z,2.42
2023-03-31T01:58:56.181Z,2.97
2023-03-31T02:01:43.285Z,3.10
2023-03-31T02:06:40.938Z,2.60
2023-03-31T02:09:16.521Z,2.88
2023-03-31T02:11:45.662Z,2.60
2023-03-31T02:14:18.743Z,3.00
2023-03-31T02:16:47.897Z,3.05
2023-03-31T02:19:23.529Z,3.50
2023-03-31T02:21:51.073Z,3.85
2023-03-31T02:24:21.389Z,3.42
2023-03-31T02:27:09.881Z,3.35
2023-03-31T02:29:36.748Z,3.97
2023-03-31T02:32:26.613Z,4.50
2023-03-31T02:34:55.133Z,3.40
2023-03-31T02:37:22.225Z,3.10
2023-03-31T02:39:52.543Z,3.05
2023-03-31T02:42:19.776Z,3.90
2023-03-31T02:44:46.651Z,4.38
2023-03-31T02:47:15.737Z,4.75
2023-03-31T02:49:48.606Z,4.88
2023-03-31T02:52:39.613Z,3.65
2023-03-31T02:55:08.920Z,4.85
2023-03-31T02:57:54.331Z,4.95
2023-03-31T03:00:39.185Z,6.97
2023-03-31T03:03:14.675Z,6.57
2023-03-31T03:05:53.550Z,4.97
2023-03-31T03:08:34.950Z,5.40
2023-03-31T03:11:28.653Z,5.13
2023-03-31T03:13:57.790Z,5.30
2023-03-31T03:16:28.911Z,6.72
2023-03-31T03:18:57.167Z,6.40
2023-03-31T03:21:23.894Z,10.57
2023-03-31T03:23:51.782Z,10.90
2023-03-31T03:26:23.789Z,8.38
2023-03-31T03:28:57.761Z,10.25
2023-03-31T03:31:26.336Z,15.45
2023-03-31T03:33:53.663Z,31.52
2023-03-31T03:36:20.691Z,17.80
2023-03-31T03:38:47.251Z,9.32
2023-03-31T03:41:13.998Z,9.13
2023-03-31T03:43:40.614Z,9.18
2023-03-31T03:46:07.347Z,13.90
2023-03-31T03:48:34.206Z,11.95
2023-03-31T03:51:01.778Z,12.48
2023-03-31T03:53:29.005Z,6.63
2023-03-31T03:55:55.976Z,7.00
2023-03-31T03:58:22.644Z,5.30
2023-03-31T04:00:49.432Z,4.13
2023-03-31T04:03:16.676Z,4.97
2023-03-31T04:08:10.460Z,8.05
2023-03-31T04:10:38.309Z,8.32
2023-03-31T04:13:04.927Z,8.00
2023-03-31T04:15:31.666Z,10.18
2023-03-31T04:17:58.435Z,8.77
2023-03-31T04:20:31.620Z,9.82
2023-03-31T04:22:58.258Z,8.73
2023-03-31T04:25:24.961Z,8.50
2023-03-31T04:27:58.597Z,7.75
2023-03-31T04:30:31.176Z,7.45
2023-03-31T04:33:02.811Z,8.38
2023-03-31T04:35:42.858Z,8.18
2023-03-31T04:38:09.983Z,7.40
2023-03-31T04:40:36.608Z,8.27
2023-03-31T04:43:03.212Z,8.55
2023-03-31T04:45:29.774Z,12.60
2023-03-31T04:47:56.408Z,11.60
2023-03-31T04:50:23.198Z,10.35
2023-03-31T04:52:49.753Z,9.80
2023-03-31T04:55:16.642Z,9.93
2023-03-31T04:57:43.224Z,12.82
2023-03-31T05:00:11.051Z,16.33
2023-03-31T05:02:37.800Z,9.18
2023-03-31T05:05:04.643Z,6.15
2023-03-31T05:07:31.639Z,5.90
2023-03-31T05:09:58.227Z,5.63
2023-03-31T05:12:25.835Z,5.88
2023-03-31T05:14:52.627Z,6.82
2023-03-31T05:17:19.176Z,7.75
2023-03-31T05:19:45.796Z,6.20
2023-03-31T05:22:12.378Z,6.50
2023-03-31T05:24:38.948Z,6.90
2023-03-31T05:27:05.967Z,4.50
2023-03-31T05:29:32.480Z,4.10
2023-03-31T05:31:59.017Z,4.57
2023-03-31T05:34:25.645Z,4.77
2023-03-31T05:36:53.963Z,6.10
2023-03-31T05:39:21.397Z,18.40
2023-03-31T05:44:14.580Z,38.10
2023-03-31T05:46:42.207Z,22.92
2023-03-31T05:49:08.869Z,38.50
2023-03-31T05:51:35.432Z,10.03
2023-03-31T05:54:02.117Z,4.87
2023-03-31T05:56:28.793Z,3.80
2023-03-31T05:58:55.349Z,3.50
2023-03-31T06:01:23.646Z,3.63
2023-03-31T06:03:50.633Z,6.65
2023-03-31T06:06:17.520Z,6.40
2023-03-31T06:08:46.094Z,6.05
2023-03-31T06:11:16.351Z,3.50
2023-03-31T06:13:43.331Z,3.90
2023-03-31T06:16:12.028Z,3.92
2023-03-31T06:18:39.715Z,8.50
2023-03-31T06:21:07.329Z,7.13
2023-03-31T06:23:34.825Z,3.15
2023-03-31T06:26:04.225Z,3.65
2023-03-31T06:28:31.323Z,4.03
2023-03-31T06:31:02.522Z,3.08
2023-03-31T06:33:29.141Z,3.25
2023-03-31T06:35:57.544Z,3.03
2023-03-31T06:38:24.368Z,2.65
2023-03-31T06:40:51.067Z,2.92
2023-03-31T06:43:17.729Z,3.05
2023-03-31T06:45:44.390Z,3.05
2023-03-31T06:48:11.322Z,2.90
2023-03-31T06:50:39.187Z,2.70
2023-03-31T06:53:05.907Z,3.40
2023-03-31T06:55:33.935Z,3.70
2023-03-31T06:58:00.766Z,4.85
2023-03-31T07:00:27.903Z,4.57
2023-03-31T07:02:55.334Z,3.30
2023-03-31T07:07:59.134Z,2.30
2023-03-31T07:10:29.249Z,2.22
2023-03-31T07:12:56.056Z,2.83
2023-03-31T07:15:23.189Z,10.55
2023-03-31T07:17:51.169Z,3.70
2023-03-31T07:20:19.192Z,2.20
2023-03-31T07:22:47.734Z,2.53
2023-03-31T07:25:17.052Z,2.92
2023-03-31T07:27:44.665Z,4.32
2023-03-31T07:30:16.838Z,2.83
2023-03-31T07:32:43.735Z,2.65
2023-03-31T07:35:11.680Z,4.50
2023-03-31T07:37:41.276Z,6.22
2023-03-31T07:40:10.857Z,19.60
2023-03-31T07:42:37.566Z,2.88
2023-03-31T07:45:06.318Z,2.45
2023-03-31T07:47:32.943Z,4.75
2023-03-31T07:49:59.615Z,3.50
2023-03-31T07:52:26.294Z,3.22
2023-03-31T07:54:52.862Z,2.65
2023-03-31T07:57:19.586Z,2.25
2023-03-31T07:59:47.096Z,1.80
2023-03-31T08:02:16.561Z,2.22
2023-03-31T08:04:44.230Z,2.80
2023-03-31T08:07:13.225Z,3.40
2023-03-31T08:09:40.934Z,3.45
2023-03-31T08:12:07.792Z,3.00
2023-03-31T08:14:40.958Z,2.60
2023-03-31T08:17:09.047Z,2.65
2023-03-31T08:22:02.956Z,1.90
2023-03-31T08:24:29.538Z,1.60
2023-03-31T08:26:56.268Z,1.63
2023-03-31T08:29:22.794Z,1.60
2023-03-31T08:31:49.411Z,1.50
2023-03-31T08:34:16.018Z,1.77
2023-03-31T08:36:43.025Z,1.55
2023-03-31T08:39:09.653Z,1.63
2023-03-31T08:41:58.274Z,1.42
2023-03-31T08:44:48.393Z,1.40
2023-03-31T08:47:24.798Z,1.85
2023-03-31T08:49:56.833Z,1.58
2023-03-31T08:52:38.978Z,1.80
2023-03-31T08:55:11.564Z,1.38
2023-03-31T08:58:03.299Z,1.58
2023-03-31T09:00:44.861Z,1.60
2023-03-31T09:03:24.935Z,1.83
2023-03-31T09:06:21.053Z,1.50
2023-03-31T09:08:47.712Z,2.08
2023-03-31T09:11:14.265Z,2.38
2023-03-31T09:14:25.750Z,2.07
2023-03-31T09:17:14.376Z,2.30
2023-03-31T09:19:52.701Z,2.00
2023-03-31T09:22:24.382Z,1.80
2023-03-31T09:24:57.823Z,1.75
2023-03-31T09:27:28.025Z,1.90
2023-03-31T09:30:22.988Z,4.70
2023-03-31T09:33:04.846Z,2.42
2023-03-31T09:35:33.717Z,2.30
2023-03-31T09:38:00.417Z,2.42
2023-03-31T09:40:28.696Z,1.77
2023-03-31T09:43:06.283Z,2.30
2023-03-31T09:45:34.091Z,2.70
2023-03-31T09:48:14.024Z,2.72
2023-03-31T09:50:49.080Z,2.58
2023-03-31T09:53:21.294Z,2.30
2023-03-31T09:55:54.018Z,2.50
2023-03-31T09:58:21.665Z,4.93
2023-03-31T10:01:01.795Z,2.00
2023-03-31T10:03:30.963Z,2.30
2023-03-31T10:06:00.567Z,2.10
2023-03-31T10:08:31.411Z,1.98
2023-03-31T10:11:04.192Z,2.35
2023-03-31T10:13:42.321Z,3.67
2023-03-31T10:16:13.659Z,2.28
2023-03-31T10:18:42.821Z,2.38
2023-03-31T10:21:28.216Z,1.98
2023-03-31T10:23:55.308Z,2.63
2023-03-31T10:26:26.795Z,2.72
2023-03-31T10:28:55.504Z,2.40
2023-03-31T10:31:27.050Z,2.90
2023-03-31T10:33:54.849Z,2.70
2023-03-31T10:36:21.462Z,2.00
2023-03-31T10:38:49.391Z,2.47
2023-03-31T10:41:24.602Z,2.70
2023-03-31T10:43:56.294Z,2.08
2023-03-31T10:46:40.019Z,2.00
2023-03-31T10:49:27.846Z,1.63
2023-03-31T10:52:00.029Z,1.90
2023-03-31T10:54:27.295Z,2.20
2023-03-31T10:57:01.645Z,2.10
2023-03-31T10:59:51.915Z,1.92
2023-03-31T11:02:27.652Z,2.00
2023-03-31T11:05:18.065Z,2.17
2023-03-31T11:08:15.211Z,1.73
2023-03-31T11:11:03.808Z,1.80
2023-03-31T11:13:43.218Z,1.65
2023-03-31T11:16:30.077Z,2.00
2023-03-31T11:19:24.483Z,1.70
2023-03-31T11:22:20.184Z,1.60
2023-03-31T11:24:52.466Z,1.52
2023-03-31T11:27:31.459Z,1.40
2023-03-31T11:30:20.723Z,1.90
2023-03-31T11:32:47.277Z,1.52
2023-03-31T11:35:32.916Z,1.58
2023-03-31T11:38:39.828Z,2.80
2023-03-31T11:41:27.485Z,1.80
2023-03-31T11:44:02.635Z,1.70
2023-03-31T11:46:52.165Z,1.38
2023-03-31T11:49:28.692Z,1.70
2023-03-31T11:51:59.169Z,1.63
2023-03-31T11:54:36.005Z,1.48
2023-03-31T11:57:12.976Z,1.67
2023-03-31T11:59:41.139Z,1.55
2023-03-31T12:02:14.624Z,1.88
2023-03-31T12:04:49.070Z,1.52
2023-03-31T12:07:37.221Z,1.92
2023-03-31T12:10:17.681Z,2.13
2023-03-31T12:12:51.638Z,2.05
2023-03-31T12:15:26.091Z,1.50
2023-03-31T12:18:31.834Z,3.30
2023-03-31T12:21:02.110Z,1.40
2023-03-31T12:23:39.395Z,1.58
2023-03-31T12:26:39.600Z,1.67
2023-03-31T12:29:19.780Z,1.33
2023-03-31T12:31:47.510Z,1.50
2023-03-31T12:34:19.100Z,2.20
2023-03-31T12:37:07.311Z,2.05
2023-03-31T12:39:55.439Z,1.85
2023-03-31T12:42:47.904Z,1.90
2023-03-31T12:45:39.439Z,2.10
2023-03-31T12:48:26.180Z,1.80
2023-03-31T12:51:29.937Z,2.10
2023-03-31T12:54:14.520Z,1.98
2023-03-31T12:56:59.875Z,1.73
2023-03-31T13:00:17.276Z,6.00
2023-03-31T13:02:44.007Z,1.80
2023-03-31T13:05:38.570Z,2.38
2023-03-31T13:08:05.885Z,1.80
2023-03-31T13:13:02.160Z,2.10
2023-03-31T13:15:30.275Z,1.55
2023-03-31T13:18:05.185Z,2.20
2023-03-31T13:20:39.017Z,2.58
2023-03-31T13:23:20.392Z,1.70
2023-03-31T13:25:49.701Z,1.92
2023-03-31T13:28:25.997Z,1.77
2023-03-31T13:31:02.779Z,1.80
2023-03-31T13:33:34.396Z,1.40
2023-03-31T13:36:25.356Z,2.10
2023-03-31T13:39:33.223Z,2.30
2023-03-31T13:42:33.386Z,2.80
2023-03-31T13:45:21.667Z,1.75
2023-03-31T13:48:26.200Z,2.15
2023-03-31T13:51:18.143Z,5.57
2023-03-31T13:54:07.608Z,5.03
2023-03-31T13:57:17.833Z,1.92
2023-03-31T13:59:55.775Z,2.05
2023-03-31T14:02:29.256Z,2.15
2023-03-31T14:05:08.053Z,1.85
2023-03-31T14:07:42.748Z,2.95
2023-03-31T14:10:42.771Z,2.15
2023-03-31T14:13:18.769Z,1.70
2023-03-31T14:15:55.709Z,1.63
2023-03-31T14:18:28.453Z,1.60
2023-03-31T14:21:13.613Z,1.65
2023-03-31T14:24:11.271Z,2.90
2023-03-31T14:27:03.905Z,1.65
2023-03-31T14:29:47.939Z,1.90
2023-03-31T14:32:41.232Z,2.08
2023-03-31T14:35:39.419Z,1.67
2023-03-31T14:38:19.556Z,2.38
2023-03-31T14:40:54.009Z,1.70
2023-03-31T14:43:23.742Z,1.67
2023-03-31T14:46:05.683Z,1.70
2023-03-31T14:48:35.744Z,1.80
2023-03-31T14:51:04.011Z,1.55
2023-03-31T14:53:30.697Z,1.90
2023-03-31T14:56:04.699Z,1.83
2023-03-31T14:58:35.178Z,2.22
2023-03-31T15:01:04.879Z,1.67
2023-03-31T15:03:33.077Z,1.80
2023-03-31T15:06:02.884Z,1.80
2023-03-31T15:08:32.172Z,2.42
2023-03-31T15:11:11.806Z,4.53
2023-03-31T15:13:52.968Z,1.98
2023-03-31T15:16:45.108Z,2.00
2023-03-31T15:19:27.907Z,2.17
2023-03-31T15:22:02.750Z,1.75
2023-03-31T15:24:30.457Z,2.10
2023-03-31T15:26:58.366Z,2.13
2023-03-31T15:29:45.219Z,1.67
2023-03-31T15:32:27.601Z,1.80
2023-03-31T15:34:54.907Z,1.75
2023-03-31T15:37:27.950Z,1.70
2023-03-31T15:39:58.279Z,1.85
2023-03-31T15:42:26.302Z,1.77
2023-03-31T15:44:55.565Z,1.77
2023-03-31T15:47:27.582Z,2.00
2023-03-31T15:50:13.273Z,4.25
2023-03-31T15:52:48.527Z,4.35
2023-03-31T15:55:26.370Z,3.30
2023-03-31T15:57:54.348Z,3.95
2023-03-31T16:00:39.990Z,6.63
2023-03-31T16:03:20.552Z,4.10
2023-03-31T16:06:17.033Z,7.55
2023-03-31T16:08:48.603Z,5.68
2023-03-31T16:11:28.261Z,3.33
2023-03-31T16:13:59.967Z,4.25
2023-03-31T16:16:28.721Z,5.00
2023-03-31T16:19:10.182Z,5.57
2023-03-31T16:21:59.690Z,4.57
2023-03-31T16:24:32.942Z,4.80
2023-03-31T16:27:06.866Z,3.90
2023-03-31T16:29:38.082Z,3.00
2023-03-31T16:32:24.622Z,3.03
2023-03-31T16:34:58.482Z,3.08
2023-03-31T16:37:25.919Z,2.50
2023-03-31T16:42:22.092Z,3.55
2023-03-31T16:44:59.878Z,4.18
2023-03-31T16:47:36.393Z,6.35
2023-03-31T16:50:07.299Z,6.63
2023-03-31T16:52:35.908Z,8.50
2023-03-31T16:55:02.540Z,16.02
2023-03-31T16:57:29.217Z,10.43
2023-03-31T16:59:58.795Z,12.23
2023-03-31T17:02:25.706Z,13.63
2023-03-31T17:04:54.265Z,13.27
2023-03-31T17:07:23.316Z,11.00
2023-03-31T17:09:49.882Z,9.20
2023-03-31T17:12:16.501Z,10.07
2023-03-31T17:14:43.091Z,11.52
2023-03-31T17:17:09.769Z,20.20
2023-03-31T17:19:36.352Z,19.55
2023-03-31T17:22:03.662Z,15.83
2023-03-31T17:26:57.649Z,12.02
2023-03-31T17:31:51.568Z,10.48
2023-03-31T17:34:18.299Z,10.43
2023-03-31T17:36:45.200Z,8.85
2023-03-31T17:39:12.144Z,12.18
2023-03-31T17:41:38.737Z,8.10
2023-03-31T17:44:07.845Z,7.60
2023-03-31T17:46:35.124Z,8.80
2023-03-31T17:49:01.681Z,6.95
2023-03-31T17:51:28.857Z,9.37
2023-03-31T17:53:56.293Z,9.40
2023-03-31T17:58:49.596Z,5.13
2023-03-31T18:01:16.372Z,4.05
2023-03-31T18:03:45.008Z,3.50
2023-03-31T18:06:13.384Z,3.38
2023-03-31T18:08:41.727Z,12.18
2023-03-31T18:11:09.931Z,12.50
2023-03-31T18:13:37.464Z,15.35
2023-03-31T18:16:05.655Z,14.07
2023-03-31T18:18:32.652Z,20.70
2023-03-31T18:21:04.749Z,20.08
2023-03-31T18:23:32.155Z,18.05
2023-03-31T18:28:25.615Z,23.25
2023-03-31T18:30:53.289Z,25.38
2023-03-31T18:33:20.347Z,19.17
2023-03-31T18:35:47.010Z,12.13
2023-03-31T18:38:13.970Z,13.02
2023-03-31T18:40:47.859Z,13.68
2023-03-31T18:43:14.382Z,14.18
2023-03-31T18:45:41.394Z,11.90
2023-03-31T18:48:07.983Z,18.33
2023-03-31T18:50:34.715Z,14.68
2023-03-31T18:53:01.336Z,7.95
2023-03-31T18:55:29.225Z,13.25
2023-03-31T18:57:56.325Z,8.30
2023-03-31T19:00:23.235Z,8.55
2023-03-31T19:02:50.151Z,9.73
2023-03-31T19:05:16.864Z,9.90
2023-03-31T19:07:43.577Z,17.98
2023-03-31T19:10:10.751Z,12.57
2023-03-31T19:12:37.768Z,21.10
2023-03-31T19:15:04.960Z,8.20
2023-03-31T19:17:31.903Z,6.93
2023-03-31T19:19:58.437Z,8.48
2023-03-31T19:22:27.608Z,10.17
2023-03-31T19:24:54.243Z,6.78
2023-03-31T19:27:20.889Z,6.80
2023-03-31T19:29:47.602Z,5.60
2023-03-31T19:32:14.364Z,5.97
2023-03-31T19:34:41.161Z,6.20
2023-03-31T19:37:07.778Z,6.90
2023-03-31T19:39:34.537Z,7.10
2023-03-31T19:42:02.154Z,6.80
2023-03-31T19:44:29.215Z,5.90
2023-03-31T19:46:55.712Z,6.13
2023-03-31T19:49:22.509Z,6.07
2023-03-31T19:51:49.080Z,6.68
2023-03-31T19:54:15.963Z,5.63
2023-03-31T19:56:42.558Z,5.05
2023-03-31T19:59:09.150Z,5.63
2023-03-31T20:01:37.576Z,4.82
2023-03-31T20:06:31.877Z,4.60
2023-03-31T20:11:27.812Z,5.07
2023-03-31T20:13:55.474Z,5.18
2023-03-31T20:16:25.504Z,4.05
2023-03-31T20:18:55.014Z,4.00
2023-03-31T20:21:23.863Z,4.20
2023-03-31T20:23:51.126Z,4.25
2023-03-31T20:26:20.849Z,4.80
2023-03-31T20:28:48.085Z,3.70
2023-03-31T20:31:21.148Z,4.13
2023-03-31T20:33:48.485Z,4.00
2023-03-31T20:36:18.837Z,3.80
2023-03-31T20:38:47.908Z,3.25
2023-03-31T20:41:15.730Z,3.55
2023-03-31T20:43:42.448Z,3.38
2023-03-31T20:46:09.831Z,3.45
2023-03-31T20:51:03.963Z,3.33
2023-03-31T20:53:30.862Z,3.53
2023-03-31T20:55:57.448Z,3.00
2023-03-31T20:58:24.091Z,3.10
2023-03-31T21:00:56.883Z,3.30
2023-03-31T21:03:23.608Z,3.08
2023-03-31T21:05:50.596Z,2.85
2023-03-31T21:08:17.264Z,3.25
2023-03-31T21:10:45.858Z,2.85
2023-03-31T21:13:16.447Z,2.47
2023-03-31T21:15:47.666Z,15.55
2023-03-31T21:18:16.822Z,5.82
2023-03-31T21:20:54.554Z,3.83
2023-03-31T21:23:22.588Z,4.82
2023-03-31T21:25:51.359Z,4.93
2023-03-31T21:28:20.564Z,6.93
2023-03-31T21:30:54.402Z,6.43
2023-03-31T21:33:25.154Z,7.05
2023-03-31T21:35:53.145Z,6.60
2023-03-31T21:38:20.321Z,10.00
2023-03-31T21:40:48.322Z,8.02
2023-03-31T21:43:15.464Z,6.00
2023-03-31T21:45:42.371Z,6.40
2023-03-31T21:48:10.584Z,5.03
2023-03-31T21:50:38.560Z,5.00
2023-03-31T21:53:05.861Z,4.80
2023-03-31T21:55:37.489Z,4.25
2023-03-31T21:58:05.415Z,5.38
2023-03-31T22:00:32.638Z,4.35
2023-03-31T22:03:16.376Z,5.10
2023-03-31T22:05:45.772Z,5.00
2023-03-31T22:08:12.385Z,5.33
2023-03-31T22:10:39.030Z,4.80
2023-03-31T22:13:05.580Z,4.90
2023-03-31T22:15:32.293Z,5.20
2023-03-31T22:17:59.098Z,4.65
2023-03-31T22:20:25.913Z,4.15
2023-03-31T22:22:52.424Z,4.25
2023-03-31T22:25:19.039Z,4.40
2023-03-31T22:27:45.769Z,4.18
2023-03-31T22:30:12.763Z,3.97
2023-03-31T22:32:39.369Z,4.30
2023-03-31T22:35:06.726Z,4.30
2023-03-31T22:37:33.412Z,3.72
2023-03-31T22:39:59.958Z,4.38
2023-03-31T22:42:27.027Z,4.43
2023-03-31T22:44:53.582Z,4.10
2023-03-31T22:47:20.401Z,4.03
2023-03-31T22:49:47.030Z,4.03
2023-03-31T22:52:13.974Z,4.47
2023-03-31T22:54:41.304Z,4.18
2023-03-31T22:57:08.474Z,4.25
2023-03-31T22:59:36.251Z,4.25
2023-03-31T23:02:03.377Z,3.50
2023-03-31T23:04:30.082Z,3.72
2023-03-31T23:06:57.083Z,3.42
2023-03-31T23:09:24.530Z,3.20
2023-03-31T23:14:18.198Z,9.80
2023-03-31T23:16:45.035Z,6.47
2023-03-31T23:19:12.270Z,5.55
2023-03-31T23:21:38.923Z,4.25
2023-03-31T23:24:05.811Z,4.25
2023-03-31T23:26:34.308Z,3.63
2023-03-31T23:29:01.780Z,3.88
2023-03-31T23:33:58.386Z,3.80
2023-03-31T23:36:25.810Z,4.15
2023-03-31T23:41:20.734Z,4.32
2023-03-31T23:43:47.349Z,4.28
2023-03-31T23:46:14.013Z,4.53
2023-03-31T23:48:40.853Z,4.30
2023-03-31T23:51:08.735Z,4.32
2023-03-31T23:53:35.860Z,3.80
2023-03-31T23:56:05.503Z,3.50
2023-03-31T23:58:32.858Z,4.03
